Galion, Ohio
Current Conditions -  °F | °C
As of 1:52 AM on Friday 28 Nov 2014 (Local Time) from KMFD Reporting Station
Light Snow Light Snow  
Wind Chill: 17°   Ceiling: 3300
Heat Index: 25°   Visibility: 7mi
Dew Point: 22°   Wind: 7mph
Humidity: 88%   Direction: 290°WNW
Pressure: 30.27"   Gusts: NA
Location:  40.73°N, 82.79°W
Report Text: KMFD 280652Z AUTO 29006KT 7SM -SN FEW011 BKN033 OVC040 M04/M06 A3027 RMK AO2 SNE0556B37 SLP264 P0000 T10391056
Loading
Personal Weather Stations






























Interactive Weather Map New forecast layout! Learn more

10-Day Weather Forecast

Advertisements
Track Severe Weather on mobile